sensor_id;sensor_type;location;lat;lon;timestamp;P1;durP1;ratioP1;P2;durP2;ratioP2
73599;SDS011;61877;48.246;9.220;2023-06-14T00:02:21;9.80;;;5.30;;
73599;SDS011;61877;48.246;9.220;2023-06-14T00:04:47;11.80;;;5.30;;
73599;SDS011;61877;48.246;9.220;2023-06-14T00:07:12;11.27;;;5.67;;
73599;SDS011;61877;48.246;9.220;2023-06-14T00:09:38;9.50;;;4.80;;
73599;SDS011;61877;48.246;9.220;2023-06-14T00:12:03;10.63;;;5.47;;
73599;SDS011;61877;48.246;9.220;2023-06-14T00:14:29;11.45;;;5.22;;
73599;SDS011;61877;48.246;9.220;2023-06-14T00:16:55;10.00;;;5.30;;
73599;SDS011;61877;48.246;9.220;2023-06-14T00:19:22;11.10;;;5.93;;
73599;SDS011;61877;48.246;9.220;2023-06-14T00:21:47;10.13;;;5.32;;
73599;SDS011;61877;48.246;9.220;2023-06-14T00:24:13;10.53;;;5.07;;
73599;SDS011;61877;48.246;9.220;2023-06-14T00:26:38;11.70;;;5.25;;
73599;SDS011;61877;48.246;9.220;2023-06-14T00:29:03;11.07;;;5.43;;
73599;SDS011;61877;48.246;9.220;2023-06-14T00:31:29;10.00;;;5.47;;
73599;SDS011;61877;48.246;9.220;2023-06-14T00:33:55;12.02;;;5.82;;
73599;SDS011;61877;48.246;9.220;2023-06-14T00:36:21;10.87;;;5.27;;
73599;SDS011;61877;48.246;9.220;2023-06-14T00:38:49;10.60;;;5.85;;
73599;SDS011;61877;48.246;9.220;2023-06-14T00:41:15;9.98;;;5.43;;
73599;SDS011;61877;48.246;9.220;2023-06-14T00:43:40;9.50;;;4.90;;
73599;SDS011;61877;48.246;9.220;2023-06-14T00:46:06;9.63;;;5.30;;
73599;SDS011;61877;48.246;9.220;2023-06-14T00:48:31;10.17;;;5.53;;
73599;SDS011;61877;48.246;9.220;2023-06-14T00:50:58;9.52;;;5.22;;
73599;SDS011;61877;48.246;9.220;2023-06-14T00:53:26;9.95;;;5.15;;
73599;SDS011;61877;48.246;9.220;2023-06-14T00:55:52;10.05;;;5.40;;
73599;SDS011;61877;48.246;9.220;2023-06-14T00:58:17;10.53;;;5.17;;
73599;SDS011;61877;48.246;9.220;2023-06-14T01:00:43;9.47;;;4.80;;
73599;SDS011;61877;48.246;9.220;2023-06-14T01:03:08;10.15;;;5.13;;
73599;SDS011;61877;48.246;9.220;2023-06-14T01:05:34;9.87;;;5.20;;
73599;SDS011;61877;48.246;9.220;2023-06-14T01:08:10;10.13;;;5.00;;
73599;SDS011;61877;48.246;9.220;2023-06-14T01:10:47;9.27;;;4.70;;
73599;SDS011;61877;48.246;9.220;2023-06-14T01:13:19;11.63;;;4.78;;
73599;SDS011;61877;48.246;9.220;2023-06-14T01:15:47;10.82;;;5.20;;
73599;SDS011;61877;48.246;9.220;2023-06-14T01:18:12;11.00;;;5.38;;
73599;SDS011;61877;48.246;9.220;2023-06-14T01:20:38;10.33;;;5.07;;
73599;SDS011;61877;48.246;9.220;2023-06-14T01:23:08;10.77;;;5.38;;
73599;SDS011;61877;48.246;9.220;2023-06-14T01:25:33;10.68;;;5.93;;
73599;SDS011;61877;48.246;9.220;2023-06-14T01:27:59;11.53;;;5.23;;
73599;SDS011;61877;48.246;9.220;2023-06-14T01:30:27;9.90;;;5.22;;
73599;SDS011;61877;48.246;9.220;2023-06-14T01:32:55;9.73;;;4.77;;
73599;SDS011;61877;48.246;9.220;2023-06-14T01:35:22;10.35;;;5.45;;
73599;SDS011;61877;48.246;9.220;2023-06-14T01:37:48;10.32;;;5.65;;
73599;SDS011;61877;48.246;9.220;2023-06-14T01:40:15;12.05;;;6.68;;
73599;SDS011;61877;48.246;9.220;2023-06-14T01:42:43;10.95;;;5.70;;
73599;SDS011;61877;48.246;9.220;2023-06-14T01:45:11;10.47;;;5.30;;
73599;SDS011;61877;48.246;9.220;2023-06-14T01:47:36;10.70;;;5.35;;
73599;SDS011;61877;48.246;9.220;2023-06-14T01:50:02;10.20;;;5.38;;
73599;SDS011;61877;48.246;9.220;2023-06-14T01:52:28;9.33;;;5.00;;
73599;SDS011;61877;48.246;9.220;2023-06-14T01:54:54;10.02;;;5.38;;
73599;SDS011;61877;48.246;9.220;2023-06-14T01:57:21;10.37;;;5.77;;
73599;SDS011;61877;48.246;9.220;2023-06-14T01:59:47;10.52;;;5.82;;
73599;SDS011;61877;48.246;9.220;2023-06-14T02:02:13;10.73;;;6.17;;
73599;SDS011;61877;48.246;9.220;2023-06-14T02:04:39;10.10;;;5.75;;
73599;SDS011;61877;48.246;9.220;2023-06-14T02:07:04;11.90;;;6.00;;
73599;SDS011;61877;48.246;9.220;2023-06-14T02:09:30;11.77;;;5.57;;
73599;SDS011;61877;48.246;9.220;2023-06-14T02:11:56;9.88;;;5.47;;
73599;SDS011;61877;48.246;9.220;2023-06-14T02:14:26;11.50;;;5.53;;
73599;SDS011;61877;48.246;9.220;2023-06-14T02:16:51;11.15;;;5.00;;
73599;SDS011;61877;48.246;9.220;2023-06-14T02:19:17;9.98;;;5.20;;
73599;SDS011;61877;48.246;9.220;2023-06-14T02:21:42;10.00;;;5.40;;
73599;SDS011;61877;48.246;9.220;2023-06-14T02:24:08;10.75;;;5.75;;
73599;SDS011;61877;48.246;9.220;2023-06-14T02:26:34;9.47;;;4.90;;
73599;SDS011;61877;48.246;9.220;2023-06-14T02:28:59;10.80;;;5.50;;
73599;SDS011;61877;48.246;9.220;2023-06-14T02:31:26;9.32;;;4.85;;
73599;SDS011;61877;48.246;9.220;2023-06-14T02:33:52;10.35;;;5.20;;
73599;SDS011;61877;48.246;9.220;2023-06-14T02:36:17;10.73;;;5.23;;
73599;SDS011;61877;48.246;9.220;2023-06-14T02:38:43;10.07;;;5.32;;
73599;SDS011;61877;48.246;9.220;2023-06-14T02:41:08;10.63;;;5.00;;
73599;SDS011;61877;48.246;9.220;2023-06-14T02:43:34;12.33;;;5.80;;
73599;SDS011;61877;48.246;9.220;2023-06-14T02:45:59;14.17;;;5.73;;
73599;SDS011;61877;48.246;9.220;2023-06-14T02:48:27;10.35;;;5.50;;
73599;SDS011;61877;48.246;9.220;2023-06-14T02:50:53;11.48;;;5.85;;
73599;SDS011;61877;48.246;9.220;2023-06-14T02:53:18;11.63;;;5.90;;
73599;SDS011;61877;48.246;9.220;2023-06-14T02:55:43;12.20;;;6.40;;
73599;SDS011;61877;48.246;9.220;2023-06-14T02:58:11;12.38;;;5.97;;
73599;SDS011;61877;48.246;9.220;2023-06-14T03:00:37;11.33;;;6.10;;
73599;SDS011;61877;48.246;9.220;2023-06-14T03:03:02;11.02;;;5.75;;
73599;SDS011;61877;48.246;9.220;2023-06-14T03:05:29;11.20;;;6.10;;
73599;SDS011;61877;48.246;9.220;2023-06-14T03:07:55;11.50;;;5.78;;
73599;SDS011;61877;48.246;9.220;2023-06-14T03:10:20;11.00;;;5.43;;
73599;SDS011;61877;48.246;9.220;2023-06-14T03:12:49;12.10;;;6.03;;
73599;SDS011;61877;48.246;9.220;2023-06-14T03:15:15;10.67;;;5.60;;
73599;SDS011;61877;48.246;9.220;2023-06-14T03:17:40;11.60;;;5.50;;
73599;SDS011;61877;48.246;9.220;2023-06-14T03:20:06;14.77;;;9.03;;
73599;SDS011;61877;48.246;9.220;2023-06-14T03:22:34;11.57;;;6.15;;
73599;SDS011;61877;48.246;9.220;2023-06-14T03:24:59;10.27;;;5.35;;
73599;SDS011;61877;48.246;9.220;2023-06-14T03:27:27;10.23;;;5.27;;
73599;SDS011;61877;48.246;9.220;2023-06-14T03:29:52;10.35;;;5.43;;
73599;SDS011;61877;48.246;9.220;2023-06-14T03:32:21;10.17;;;5.37;;
73599;SDS011;61877;48.246;9.220;2023-06-14T03:34:46;10.65;;;5.50;;
73599;SDS011;61877;48.246;9.220;2023-06-14T03:37:12;9.67;;;4.73;;
73599;SDS011;61877;48.246;9.220;2023-06-14T03:39:40;10.07;;;4.87;;
73599;SDS011;61877;48.246;9.220;2023-06-14T03:42:06;11.27;;;5.53;;
73599;SDS011;61877;48.246;9.220;2023-06-14T03:44:32;10.25;;;5.32;;
73599;SDS011;61877;48.246;9.220;2023-06-14T03:46:57;9.83;;;5.30;;
73599;SDS011;61877;48.246;9.220;2023-06-14T03:49:23;10.43;;;5.30;;
73599;SDS011;61877;48.246;9.220;2023-06-14T03:51:51;10.43;;;5.27;;
73599;SDS011;61877;48.246;9.220;2023-06-14T03:54:17;10.68;;;5.53;;
73599;SDS011;61877;48.246;9.220;2023-06-14T03:56:44;11.83;;;6.10;;
73599;SDS011;61877;48.246;9.220;2023-06-14T03:59:10;11.75;;;5.63;;
73599;SDS011;61877;48.246;9.220;2023-06-14T04:01:36;10.77;;;5.47;;
73599;SDS011;61877;48.246;9.220;2023-06-14T04:04:01;11.33;;;5.90;;
73599;SDS011;61877;48.246;9.220;2023-06-14T04:06:27;10.43;;;5.43;;
73599;SDS011;61877;48.246;9.220;2023-06-14T04:08:52;11.13;;;5.82;;
73599;SDS011;61877;48.246;9.220;2023-06-14T04:11:18;10.00;;;5.10;;
73599;SDS011;61877;48.246;9.220;2023-06-14T04:13:45;10.07;;;4.93;;
73599;SDS011;61877;48.246;9.220;2023-06-14T04:16:11;10.97;;;5.27;;
73599;SDS011;61877;48.246;9.220;2023-06-14T04:18:36;10.13;;;5.10;;
73599;SDS011;61877;48.246;9.220;2023-06-14T04:21:02;11.50;;;4.90;;
73599;SDS011;61877;48.246;9.220;2023-06-14T04:23:27;10.95;;;5.40;;
73599;SDS011;61877;48.246;9.220;2023-06-14T04:25:53;10.23;;;5.70;;
73599;SDS011;61877;48.246;9.220;2023-06-14T04:28:19;10.40;;;5.60;;
73599;SDS011;61877;48.246;9.220;2023-06-14T04:30:46;11.73;;;5.50;;
73599;SDS011;61877;48.246;9.220;2023-06-14T04:33:12;10.63;;;5.60;;
73599;SDS011;61877;48.246;9.220;2023-06-14T04:35:40;10.87;;;5.20;;
73599;SDS011;61877;48.246;9.220;2023-06-14T04:38:06;10.07;;;5.57;;
73599;SDS011;61877;48.246;9.220;2023-06-14T04:40:32;10.55;;;5.40;;
73599;SDS011;61877;48.246;9.220;2023-06-14T04:42:58;9.40;;;4.82;;
73599;SDS011;61877;48.246;9.220;2023-06-14T04:45:24;10.37;;;5.53;;
73599;SDS011;61877;48.246;9.220;2023-06-14T04:47:51;11.73;;;5.72;;
73599;SDS011;61877;48.246;9.220;2023-06-14T04:50:17;10.50;;;5.65;;
73599;SDS011;61877;48.246;9.220;2023-06-14T04:52:45;11.77;;;6.07;;
73599;SDS011;61877;48.246;9.220;2023-06-14T04:55:10;11.15;;;5.65;;
73599;SDS011;61877;48.246;9.220;2023-06-14T04:57:36;10.70;;;5.33;;
73599;SDS011;61877;48.246;9.220;2023-06-14T05:00:04;10.70;;;5.85;;
73599;SDS011;61877;48.246;9.220;2023-06-14T05:02:33;11.77;;;5.53;;
73599;SDS011;61877;48.246;9.220;2023-06-14T05:05:10;12.07;;;5.80;;
73599;SDS011;61877;48.246;9.220;2023-06-14T05:07:36;11.07;;;5.65;;
73599;SDS011;61877;48.246;9.220;2023-06-14T05:10:02;11.05;;;5.20;;
73599;SDS011;61877;48.246;9.220;2023-06-14T05:12:28;11.30;;;5.30;;
73599;SDS011;61877;48.246;9.220;2023-06-14T05:14:53;10.07;;;5.45;;
73599;SDS011;61877;48.246;9.220;2023-06-14T05:17:19;10.07;;;5.30;;
73599;SDS011;61877;48.246;9.220;2023-06-14T05:19:45;10.73;;;5.90;;
73599;SDS011;61877;48.246;9.220;2023-06-14T05:22:20;11.93;;;5.40;;
73599;SDS011;61877;48.246;9.220;2023-06-14T05:24:48;11.23;;;6.00;;
73599;SDS011;61877;48.246;9.220;2023-06-14T05:27:14;11.87;;;6.30;;
73599;SDS011;61877;48.246;9.220;2023-06-14T05:29:39;10.70;;;6.22;;
73599;SDS011;61877;48.246;9.220;2023-06-14T05:32:05;10.13;;;5.10;;
73599;SDS011;61877;48.246;9.220;2023-06-14T05:34:32;10.02;;;5.55;;
73599;SDS011;61877;48.246;9.220;2023-06-14T05:36:58;10.30;;;5.25;;
73599;SDS011;61877;48.246;9.220;2023-06-14T05:39:27;11.07;;;5.53;;
73599;SDS011;61877;48.246;9.220;2023-06-14T05:41:52;11.23;;;5.67;;
73599;SDS011;61877;48.246;9.220;2023-06-14T05:44:18;11.35;;;6.28;;
73599;SDS011;61877;48.246;9.220;2023-06-14T05:46:44;10.85;;;5.88;;
73599;SDS011;61877;48.246;9.220;2023-06-14T05:49:10;10.80;;;5.53;;
73599;SDS011;61877;48.246;9.220;2023-06-14T05:51:36;9.90;;;5.07;;
73599;SDS011;61877;48.246;9.220;2023-06-14T05:54:04;10.95;;;5.55;;
73599;SDS011;61877;48.246;9.220;2023-06-14T05:56:32;10.90;;;5.43;;
73599;SDS011;61877;48.246;9.220;2023-06-14T05:58:57;11.05;;;6.05;;
73599;SDS011;61877;48.246;9.220;2023-06-14T06:01:23;11.10;;;5.70;;
73599;SDS011;61877;48.246;9.220;2023-06-14T06:03:48;10.33;;;5.10;;
73599;SDS011;61877;48.246;9.220;2023-06-14T06:06:14;10.67;;;5.50;;
73599;SDS011;61877;48.246;9.220;2023-06-14T06:08:40;12.35;;;5.40;;
73599;SDS011;61877;48.246;9.220;2023-06-14T06:11:06;10.68;;;5.63;;
73599;SDS011;61877;48.246;9.220;2023-06-14T06:13:35;11.07;;;5.40;;
73599;SDS011;61877;48.246;9.220;2023-06-14T06:16:01;10.85;;;5.53;;
73599;SDS011;61877;48.246;9.220;2023-06-14T06:28:41;9.70;;;5.05;;
73599;SDS011;61877;48.246;9.220;2023-06-14T06:31:06;9.88;;;5.45;;
73599;SDS011;61877;48.246;9.220;2023-06-14T06:33:32;12.00;;;5.87;;
73599;SDS011;61877;48.246;9.220;2023-06-14T06:35:57;11.47;;;6.00;;
73599;SDS011;61877;48.246;9.220;2023-06-14T06:38:23;10.63;;;5.80;;
73599;SDS011;61877;48.246;9.220;2023-06-14T06:40:48;9.50;;;5.20;;
73599;SDS011;61877;48.246;9.220;2023-06-14T06:43:14;10.13;;;4.90;;
73599;SDS011;61877;48.246;9.220;2023-06-14T06:45:41;10.20;;;5.07;;
73599;SDS011;61877;48.246;9.220;2023-06-14T06:48:06;9.67;;;4.90;;
73599;SDS011;61877;48.246;9.220;2023-06-14T06:50:32;9.60;;;4.72;;
73599;SDS011;61877;48.246;9.220;2023-06-14T06:52:57;9.07;;;4.80;;
73599;SDS011;61877;48.246;9.220;2023-06-14T06:55:23;9.90;;;4.20;;
73599;SDS011;61877;48.246;9.220;2023-06-14T06:57:51;9.60;;;4.05;;
73599;SDS011;61877;48.246;9.220;2023-06-14T07:00:16;9.73;;;4.07;;
73599;SDS011;61877;48.246;9.220;2023-06-14T07:02:44;8.82;;;4.15;;
73599;SDS011;61877;48.246;9.220;2023-06-14T07:05:09;8.48;;;4.20;;
73599;SDS011;61877;48.246;9.220;2023-06-14T07:07:35;8.93;;;4.03;;
73599;SDS011;61877;48.246;9.220;2023-06-14T07:10:00;9.70;;;4.00;;
73599;SDS011;61877;48.246;9.220;2023-06-14T07:12:26;9.30;;;3.80;;
73599;SDS011;61877;48.246;9.220;2023-06-14T07:14:52;8.43;;;4.10;;
73599;SDS011;61877;48.246;9.220;2023-06-14T07:17:17;10.23;;;4.53;;
73599;SDS011;61877;48.246;9.220;2023-06-14T07:19:44;9.57;;;4.17;;
73599;SDS011;61877;48.246;9.220;2023-06-14T07:22:10;8.85;;;3.58;;
73599;SDS011;61877;48.246;9.220;2023-06-14T07:24:35;8.10;;;4.23;;
73599;SDS011;61877;48.246;9.220;2023-06-14T07:27:03;10.95;;;4.13;;
73599;SDS011;61877;48.246;9.220;2023-06-14T07:29:29;9.07;;;4.30;;
73599;SDS011;61877;48.246;9.220;2023-06-14T07:31:54;8.77;;;4.20;;
73599;SDS011;61877;48.246;9.220;2023-06-14T07:34:22;9.57;;;4.32;;
73599;SDS011;61877;48.246;9.220;2023-06-14T07:36:49;8.48;;;4.00;;
73599;SDS011;61877;48.246;9.220;2023-06-14T07:39:15;8.23;;;3.53;;
73599;SDS011;61877;48.246;9.220;2023-06-14T07:41:41;9.90;;;3.90;;
73599;SDS011;61877;48.246;9.220;2023-06-14T07:44:06;8.07;;;3.80;;
73599;SDS011;61877;48.246;9.220;2023-06-14T07:46:32;8.75;;;3.85;;
73599;SDS011;61877;48.246;9.220;2023-06-14T07:48:58;7.95;;;4.10;;
73599;SDS011;61877;48.246;9.220;2023-06-14T07:51:24;8.63;;;4.30;;
73599;SDS011;61877;48.246;9.220;2023-06-14T07:53:51;9.27;;;4.13;;
73599;SDS011;61877;48.246;9.220;2023-06-14T07:56:17;8.70;;;4.30;;
73599;SDS011;61877;48.246;9.220;2023-06-14T07:58:42;9.70;;;4.13;;
73599;SDS011;61877;48.246;9.220;2023-06-14T08:01:08;8.43;;;4.20;;
73599;SDS011;61877;48.246;9.220;2023-06-14T08:03:34;9.33;;;4.07;;
73599;SDS011;61877;48.246;9.220;2023-06-14T08:05:59;10.05;;;4.10;;
73599;SDS011;61877;48.246;9.220;2023-06-14T08:08:25;7.85;;;4.00;;
73599;SDS011;61877;48.246;9.220;2023-06-14T08:11:07;9.90;;;4.20;;
73599;SDS011;61877;48.246;9.220;2023-06-14T08:13:32;10.68;;;4.43;;
73599;SDS011;61877;48.246;9.220;2023-06-14T08:15:58;9.35;;;4.20;;
73599;SDS011;61877;48.246;9.220;2023-06-14T08:18:26;9.07;;;4.10;;
73599;SDS011;61877;48.246;9.220;2023-06-14T08:20:51;8.15;;;4.07;;
73599;SDS011;61877;48.246;9.220;2023-06-14T08:23:17;9.48;;;4.30;;
73599;SDS011;61877;48.246;9.220;2023-06-14T08:25:43;9.50;;;4.10;;
73599;SDS011;61877;48.246;9.220;2023-06-14T08:28:10;8.15;;;4.20;;
73599;SDS011;61877;48.246;9.220;2023-06-14T08:30:35;8.55;;;4.43;;
73599;SDS011;61877;48.246;9.220;2023-06-14T08:33:01;9.03;;;4.10;;
73599;SDS011;61877;48.246;9.220;2023-06-14T08:35:27;8.77;;;4.57;;
73599;SDS011;61877;48.246;9.220;2023-06-14T08:37:52;8.90;;;4.10;;
73599;SDS011;61877;48.246;9.220;2023-06-14T08:40:19;8.23;;;4.37;;
73599;SDS011;61877;48.246;9.220;2023-06-14T08:42:47;9.48;;;4.60;;
73599;SDS011;61877;48.246;9.220;2023-06-14T08:45:16;9.25;;;4.72;;
73599;SDS011;61877;48.246;9.220;2023-06-14T08:47:42;9.63;;;5.00;;
73599;SDS011;61877;48.246;9.220;2023-06-14T08:50:09;9.60;;;5.00;;
73599;SDS011;61877;48.246;9.220;2023-06-14T08:52:36;8.90;;;4.90;;
73599;SDS011;61877;48.246;9.220;2023-06-14T08:55:04;11.20;;;5.22;;
73599;SDS011;61877;48.246;9.220;2023-06-14T08:57:30;9.63;;;4.95;;
73599;SDS011;61877;48.246;9.220;2023-06-14T08:59:57;8.70;;;4.57;;
73599;SDS011;61877;48.246;9.220;2023-06-14T09:02:25;12.15;;;4.90;;
73599;SDS011;61877;48.246;9.220;2023-06-14T09:04:51;9.88;;;4.90;;
73599;SDS011;61877;48.246;9.220;2023-06-14T09:07:16;9.80;;;5.00;;
73599;SDS011;61877;48.246;9.220;2023-06-14T09:09:42;8.77;;;4.80;;
73599;SDS011;61877;48.246;9.220;2023-06-14T09:12:08;11.27;;;4.90;;
73599;SDS011;61877;48.246;9.220;2023-06-14T09:14:35;8.57;;;5.20;;
73599;SDS011;61877;48.246;9.220;2023-06-14T09:17:00;9.50;;;5.05;;
73599;SDS011;61877;48.246;9.220;2023-06-14T09:19:27;8.67;;;4.80;;
73599;SDS011;61877;48.246;9.220;2023-06-14T09:21:53;8.75;;;4.82;;
73599;SDS011;61877;48.246;9.220;2023-06-14T09:24:19;9.70;;;5.00;;
73599;SDS011;61877;48.246;9.220;2023-06-14T09:26:46;9.03;;;4.73;;
73599;SDS011;61877;48.246;9.220;2023-06-14T09:29:12;9.00;;;4.97;;
73599;SDS011;61877;48.246;9.220;2023-06-14T09:31:37;9.27;;;5.07;;
73599;SDS011;61877;48.246;9.220;2023-06-14T09:34:03;9.35;;;5.00;;
73599;SDS011;61877;48.246;9.220;2023-06-14T09:36:31;10.10;;;5.27;;
73599;SDS011;61877;48.246;9.220;2023-06-14T09:38:57;9.02;;;4.90;;
73599;SDS011;61877;48.246;9.220;2023-06-14T09:41:30;8.77;;;5.10;;
73599;SDS011;61877;48.246;9.220;2023-06-14T09:43:57;8.77;;;5.10;;
73599;SDS011;61877;48.246;9.220;2023-06-14T09:46:23;9.75;;;5.60;;
73599;SDS011;61877;48.246;9.220;2023-06-14T09:48:49;10.50;;;5.40;;
73599;SDS011;61877;48.246;9.220;2023-06-14T09:51:14;10.23;;;5.23;;
73599;SDS011;61877;48.246;9.220;2023-06-14T09:53:43;10.80;;;5.53;;
73599;SDS011;61877;48.246;9.220;2023-06-14T09:56:11;11.40;;;5.50;;
73599;SDS011;61877;48.246;9.220;2023-06-14T09:58:37;11.23;;;5.70;;
73599;SDS011;61877;48.246;9.220;2023-06-14T10:01:05;12.18;;;5.60;;
73599;SDS011;61877;48.246;9.220;2023-06-14T10:03:34;10.95;;;5.35;;
73599;SDS011;61877;48.246;9.220;2023-06-14T10:06:02;10.63;;;5.70;;
73599;SDS011;61877;48.246;9.220;2023-06-14T10:08:31;8.88;;;5.30;;
73599;SDS011;61877;48.246;9.220;2023-06-14T10:11:02;9.77;;;5.10;;
73599;SDS011;61877;48.246;9.220;2023-06-14T10:13:28;9.57;;;5.32;;
73599;SDS011;61877;48.246;9.220;2023-06-14T10:16:02;9.70;;;5.30;;
73599;SDS011;61877;48.246;9.220;2023-06-14T10:18:35;11.07;;;5.50;;
73599;SDS011;61877;48.246;9.220;2023-06-14T10:21:08;10.73;;;5.72;;
73599;SDS011;61877;48.246;9.220;2023-06-14T10:23:41;11.03;;;5.53;;
73599;SDS011;61877;48.246;9.220;2023-06-14T10:26:13;12.70;;;5.88;;
73599;SDS011;61877;48.246;9.220;2023-06-14T10:28:43;10.00;;;5.70;;
73599;SDS011;61877;48.246;9.220;2023-06-14T10:31:22;10.18;;;6.05;;
73599;SDS011;61877;48.246;9.220;2023-06-14T10:33:48;10.40;;;6.00;;
73599;SDS011;61877;48.246;9.220;2023-06-14T10:36:24;11.65;;;6.28;;
73599;SDS011;61877;48.246;9.220;2023-06-14T10:38:56;9.68;;;5.40;;
73599;SDS011;61877;48.246;9.220;2023-06-14T10:41:24;9.55;;;5.43;;
73599;SDS011;61877;48.246;9.220;2023-06-14T10:43:52;9.53;;;5.77;;
73599;SDS011;61877;48.246;9.220;2023-06-14T10:46:17;10.13;;;5.55;;
73599;SDS011;61877;48.246;9.220;2023-06-14T10:48:44;11.25;;;5.57;;
73599;SDS011;61877;48.246;9.220;2023-06-14T10:51:16;10.73;;;5.20;;
73599;SDS011;61877;48.246;9.220;2023-06-14T10:53:42;9.57;;;5.07;;
73599;SDS011;61877;48.246;9.220;2023-06-14T10:56:10;9.47;;;5.60;;
73599;SDS011;61877;48.246;9.220;2023-06-14T10:58:51;9.33;;;5.50;;
73599;SDS011;61877;48.246;9.220;2023-06-14T11:01:18;10.13;;;5.32;;
73599;SDS011;61877;48.246;9.220;2023-06-14T11:03:51;13.13;;;5.65;;
73599;SDS011;61877;48.246;9.220;2023-06-14T11:06:17;11.30;;;5.30;;
73599;SDS011;61877;48.246;9.220;2023-06-14T11:11:56;10.00;;;5.32;;
73599;SDS011;61877;48.246;9.220;2023-06-14T11:14:25;10.23;;;5.53;;
73599;SDS011;61877;48.246;9.220;2023-06-14T11:16:54;10.27;;;5.20;;
73599;SDS011;61877;48.246;9.220;2023-06-14T11:19:21;9.53;;;5.00;;
73599;SDS011;61877;48.246;9.220;2023-06-14T11:21:47;8.85;;;4.90;;
73599;SDS011;61877;48.246;9.220;2023-06-14T11:24:13;9.40;;;5.28;;
73599;SDS011;61877;48.246;9.220;2023-06-14T11:26:39;10.07;;;5.30;;
73599;SDS011;61877;48.246;9.220;2023-06-14T11:29:07;9.93;;;5.45;;
73599;SDS011;61877;48.246;9.220;2023-06-14T11:31:33;10.23;;;5.40;;
73599;SDS011;61877;48.246;9.220;2023-06-14T11:33:59;8.70;;;5.20;;
73599;SDS011;61877;48.246;9.220;2023-06-14T11:36:26;9.23;;;5.50;;
73599;SDS011;61877;48.246;9.220;2023-06-14T11:38:57;10.93;;;5.13;;
73599;SDS011;61877;48.246;9.220;2023-06-14T11:41:24;11.40;;;5.55;;
73599;SDS011;61877;48.246;9.220;2023-06-14T11:43:52;9.00;;;5.07;;
73599;SDS011;61877;48.246;9.220;2023-06-14T11:46:20;9.50;;;5.35;;
73599;SDS011;61877;48.246;9.220;2023-06-14T11:48:45;9.43;;;5.60;;
73599;SDS011;61877;48.246;9.220;2023-06-14T11:51:14;9.20;;;5.88;;
73599;SDS011;61877;48.246;9.220;2023-06-14T11:53:40;8.85;;;5.53;;
73599;SDS011;61877;48.246;9.220;2023-06-14T11:56:08;8.50;;;5.15;;
73599;SDS011;61877;48.246;9.220;2023-06-14T11:58:33;9.83;;;5.90;;
73599;SDS011;61877;48.246;9.220;2023-06-14T12:00:59;12.23;;;5.70;;
73599;SDS011;61877;48.246;9.220;2023-06-14T12:03:26;9.32;;;5.40;;
73599;SDS011;61877;48.246;9.220;2023-06-14T12:06:01;9.23;;;5.30;;
73599;SDS011;61877;48.246;9.220;2023-06-14T12:08:33;10.07;;;5.40;;
73599;SDS011;61877;48.246;9.220;2023-06-14T12:11:00;9.30;;;5.45;;
73599;SDS011;61877;48.246;9.220;2023-06-14T12:13:26;10.20;;;5.38;;
73599;SDS011;61877;48.246;9.220;2023-06-14T12:15:54;9.73;;;5.70;;
73599;SDS011;61877;48.246;9.220;2023-06-14T12:18:21;10.07;;;5.13;;
73599;SDS011;61877;48.246;9.220;2023-06-14T12:21:01;8.63;;;5.20;;
73599;SDS011;61877;48.246;9.220;2023-06-14T12:23:38;12.63;;;8.02;;
73599;SDS011;61877;48.246;9.220;2023-06-14T12:26:07;15.23;;;7.80;;
73599;SDS011;61877;48.246;9.220;2023-06-14T12:28:34;12.85;;;5.63;;
73599;SDS011;61877;48.246;9.220;2023-06-14T12:31:00;9.77;;;5.15;;
73599;SDS011;61877;48.246;9.220;2023-06-14T12:33:25;10.67;;;4.97;;
73599;SDS011;61877;48.246;9.220;2023-06-14T12:35:55;9.75;;;5.47;;
73599;SDS011;61877;48.246;9.220;2023-06-14T12:38:21;10.33;;;5.30;;
73599;SDS011;61877;48.246;9.220;2023-06-14T12:40:49;11.40;;;5.15;;
73599;SDS011;61877;48.246;9.220;2023-06-14T12:43:16;9.50;;;5.40;;
73599;SDS011;61877;48.246;9.220;2023-06-14T12:45:41;9.83;;;5.60;;
73599;SDS011;61877;48.246;9.220;2023-06-14T12:48:07;10.13;;;5.55;;
73599;SDS011;61877;48.246;9.220;2023-06-14T12:50:35;10.77;;;5.68;;
73599;SDS011;61877;48.246;9.220;2023-06-14T12:53:03;11.20;;;5.33;;
73599;SDS011;61877;48.246;9.220;2023-06-14T12:55:29;10.48;;;5.38;;
73599;SDS011;61877;48.246;9.220;2023-06-14T12:57:54;10.23;;;5.43;;
73599;SDS011;61877;48.246;9.220;2023-06-14T13:00:20;10.52;;;5.30;;
73599;SDS011;61877;48.246;9.220;2023-06-14T13:02:46;10.43;;;5.43;;
73599;SDS011;61877;48.246;9.220;2023-06-14T13:05:11;10.48;;;4.97;;
73599;SDS011;61877;48.246;9.220;2023-06-14T13:07:37;11.70;;;5.27;;
73599;SDS011;61877;48.246;9.220;2023-06-14T13:10:04;8.63;;;4.90;;
73599;SDS011;61877;48.246;9.220;2023-06-14T13:12:30;9.32;;;5.38;;
73599;SDS011;61877;48.246;9.220;2023-06-14T13:14:55;9.00;;;5.40;;
73599;SDS011;61877;48.246;9.220;2023-06-14T13:17:21;9.32;;;5.70;;
73599;SDS011;61877;48.246;9.220;2023-06-14T13:19:46;7.97;;;4.90;;
73599;SDS011;61877;48.246;9.220;2023-06-14T13:22:12;14.27;;;5.67;;
73599;SDS011;61877;48.246;9.220;2023-06-14T13:24:38;17.65;;;5.35;;
73599;SDS011;61877;48.246;9.220;2023-06-14T13:27:05;8.87;;;5.43;;
73599;SDS011;61877;48.246;9.220;2023-06-14T13:29:34;11.10;;;5.15;;
73599;SDS011;61877;48.246;9.220;2023-06-14T13:31:59;9.67;;;5.40;;
73599;SDS011;61877;48.246;9.220;2023-06-14T13:34:24;9.90;;;5.47;;
73599;SDS011;61877;48.246;9.220;2023-06-14T13:36:50;9.53;;;5.40;;
73599;SDS011;61877;48.246;9.220;2023-06-14T13:39:16;10.73;;;5.33;;
73599;SDS011;61877;48.246;9.220;2023-06-14T13:41:41;8.80;;;5.30;;
73599;SDS011;61877;48.246;9.220;2023-06-14T13:44:08;9.50;;;5.20;;
73599;SDS011;61877;48.246;9.220;2023-06-14T13:46:34;9.88;;;5.40;;
73599;SDS011;61877;48.246;9.220;2023-06-14T13:48:59;9.30;;;5.38;;
73599;SDS011;61877;48.246;9.220;2023-06-14T13:51:25;9.30;;;5.10;;
73599;SDS011;61877;48.246;9.220;2023-06-14T13:53:51;11.50;;;5.77;;
73599;SDS011;61877;48.246;9.220;2023-06-14T13:56:18;10.00;;;5.30;;
73599;SDS011;61877;48.246;9.220;2023-06-14T13:58:44;8.43;;;5.63;;
73599;SDS011;61877;48.246;9.220;2023-06-14T14:01:11;10.00;;;5.30;;
73599;SDS011;61877;48.246;9.220;2023-06-14T14:03:36;9.95;;;5.82;;
73599;SDS011;61877;48.246;9.220;2023-06-14T14:06:03;10.83;;;5.50;;
73599;SDS011;61877;48.246;9.220;2023-06-14T14:08:29;10.45;;;5.47;;
73599;SDS011;61877;48.246;9.220;2023-06-14T14:10:55;10.77;;;5.20;;
73599;SDS011;61877;48.246;9.220;2023-06-14T14:13:20;9.00;;;5.03;;
73599;SDS011;61877;48.246;9.220;2023-06-14T14:15:46;9.13;;;5.60;;
73599;SDS011;61877;48.246;9.220;2023-06-14T14:18:13;13.40;;;5.57;;
73599;SDS011;61877;48.246;9.220;2023-06-14T14:20:39;10.03;;;5.63;;
73599;SDS011;61877;48.246;9.220;2023-06-14T14:23:04;8.98;;;5.50;;
73599;SDS011;61877;48.246;9.220;2023-06-14T14:25:30;10.33;;;5.50;;
73599;SDS011;61877;48.246;9.220;2023-06-14T14:27:55;11.60;;;5.63;;
73599;SDS011;61877;48.246;9.220;2023-06-14T14:30:21;9.27;;;5.57;;
73599;SDS011;61877;48.246;9.220;2023-06-14T14:32:46;13.67;;;5.80;;
73599;SDS011;61877;48.246;9.220;2023-06-14T14:35:14;8.82;;;6.03;;
73599;SDS011;61877;48.246;9.220;2023-06-14T14:37:41;9.32;;;5.70;;
73599;SDS011;61877;48.246;9.220;2023-06-14T14:40:11;8.70;;;5.80;;
73599;SDS011;61877;48.246;9.220;2023-06-14T14:42:37;9.93;;;6.00;;
73599;SDS011;61877;48.246;9.220;2023-06-14T14:45:04;10.38;;;5.88;;
73599;SDS011;61877;48.246;9.220;2023-06-14T14:47:30;8.47;;;5.13;;
73599;SDS011;61877;48.246;9.220;2023-06-14T14:49:56;9.43;;;6.30;;
73599;SDS011;61877;48.246;9.220;2023-06-14T14:52:26;9.73;;;6.07;;